• Join FlightAware (Why Join?)
  • Login
  • US Flag 
07:50AM EDT


 

Airport Tracker/Info


-or-


 

Live Flight TrackerFlight Track Log ✈ AWE3397 ✈ 25-May-2013 ✈ KMHT - KPHL

Flight Track Log - Related Links

Times and Time Zones

All times are in EDT time to prevent confusion due to time zone crossing. See the AWE3397 flight status page for this flight to view local times or setup timezone preferences in your user account.

Time Position Orientation Groundspeed Altitude Reporting Facility
EDT Latitude Longitude Course Direction KTS MPH feet Rate Location/Type
05:45AM 42.9500 -71.4333 274° West 135 155 1,300  Level KA90
05:47AM 43.0008 -71.5061 314° West 205 236 4,300 2,340 Climbing Boston Center
05:48AM 42.9500 -71.9173 270° West  Level FlightAware Approximate
05:48AM 43.0247 -71.5994 289° West 255 293 7,000  Level Boston Center
05:49AM 42.9501 -72.0611 270° West  Level FlightAware Approximate
05:49AM 43.0256 -71.7186 271° West 284 327 10,900  Level Boston Center
05:50AM 42.9500 -72.2049 270° West  Level FlightAware Approximate
05:50AM 43.0239 -71.8294 269° West 310 357 13,100  Level Boston Center
05:51AM 42.9561 -72.3485 274° West  Level FlightAware Approximate
05:51AM 43.0206 -71.9714 268° West 336 387 15,800  Level Boston Center
05:52AM 43.0189 -72.0964 269° West 355 409 18,400 2,520 Climbing Boston Center
05:53AM 43.0192 -72.2328 270° West 362 417 20,900 2,160 Climbing Boston Center
05:54AM 43.0214 -72.3747 271° West 367 422 22,800 2,040 Climbing Boston Center
05:55AM 43.0194 -72.5225 269° West 382 440 25,000 1,560 Climbing Boston Center
05:56AM 42.9733 -72.6700 247° West 395 455 26,000 480 Climbing Boston Center
05:57AM 42.9228 -72.8172 245° Southwest 407 468 26,000  Level Boston Center
05:58AM 42.8744 -72.9614 245° Southwest 420 483 26,000  Level Boston Center
05:59AM 42.8236 -73.1250 247° West 432 497 26,000  Level Boston Center
06:00AM 42.7683 -73.2886 245° Southwest 439 505 26,000  Level Boston Center
06:01AM 42.7169 -73.4375 245° Southwest 439 505 26,000  Level Boston Center
06:02AM 42.6656 -73.5836 244° Southwest 439 505 26,000  Level Boston Center
06:03AM 42.6247 -73.7014 245° Southwest 439 505 26,000  Level Boston Center
06:04AM 42.5642 -73.8806 245° Southwest 439 505 26,000  Level Boston Center
06:05AM 42.5103 -74.0314 244° Southwest 439 505 26,000  Level Boston Center
06:06AM 42.4600 -74.1792 245° Southwest 439 505 26,000  Level Boston Center
06:07AM 42.4056 -74.3269 244° Southwest 439 505 26,000  Level Boston Center
06:08AM 42.3575 -74.4575 244° Southwest 439 505 26,000  Level Boston Center
06:09AM 42.3047 -74.6044 244° Southwest 439 505 26,000 -720 Level Boston Center
06:11AM 42.1856 -74.9353 244° Southwest 437 503 23,800 -1,260 Descending New York Center
06:12AM 42.1097 -75.0172 219° Southwest 403 464 22,000 -1,920 Descending New York Center
06:13AM 42.0197 -75.0894 211° Southwest 391 450 20,000 -1,500 Descending New York Center
06:14AM 41.9253 -75.1697 212° Southwest 375 432 19,000 -540 Descending New York Center
06:15AM 41.8392 -75.2392 211° Southwest 365 420 19,000 -180 Level New York Center
06:16AM 41.7533 -75.3086 211° Southwest 365 420 18,700 -1,140 Descending New York Center
06:17AM 41.6739 -75.3725 211° Southwest 376 433 16,800 -1,860 Descending New York Center
06:18AM 41.5878 -75.4414 211° Southwest 376 433 15,000 -1,920 Descending New York Center
06:19AM 41.4953 -75.5153 211° Southwest 364 419 12,900 -1,500 Descending New York Center
06:20AM 41.4114 -75.5814 211° Southwest 359 413 12,000 -480 Descending New York Center
06:21AM 41.3361 -75.6394 210° Southwest 354 407 12,000  Level New York Center
06:22AM 41.2381 -75.6958 203° Southwest 354 407 12,000  Level New York Center
06:23AM 41.1447 -75.6892 177° South 359 413 12,000  Level New York Center
06:24AM 41.0447 -75.6900 180° South 364 419 12,000  Level New York Center
06:25AM 40.9408 -75.6825 177° South 369 425 12,000  Level New York Center
06:26AM 40.8344 -75.6311 160° South 369 425 12,000  Level New York Center
06:27AM 40.7406 -75.5833 159° South 364 419 12,000  Level New York Center
06:28AM 40.6467 -75.5356 159° South 371 427 12,000 -120 Level New York Center
06:29AM 40.5528 -75.4856 158° South 369 425 11,800 -1,020 Descending New York Center
06:30AM 40.4608 -75.4383 159° South 364 419 10,000 -1,440 Descending New York Center
06:31AM 40.3775 -75.3889 156° South 349 402 9,000 -1,320 Descending New York Center
06:32AM 40.3350 -75.3044 123° Southeast 317 365 7,500 -1,020 Descending New York Center
06:33AM 40.2903 -75.2172 124° Southeast 296 341 7,000 -540 Descending New York Center
06:34AM 40.2436 -75.1244 123° Southeast 284 327 6,500 -540 Descending New York Center
06:35AM 40.1708 -75.1197 177° South 238 274 6,000 -300 Descending New York Center
06:36AM 40.1172 -75.1625 211° Southwest 233 268 6,000  Level New York Center
06:37AM 40.0500 -75.2000 203° Southwest 237 273 6,000  Level Philadelphia TRACON
06:38AM 40.0000 -75.1833 166° South 225 259 6,000 -180 Level Philadelphia TRACON
06:39AM 39.9833 -75.1333 113° Southeast 169 194 5,700 -540 Descending Philadelphia TRACON
06:40AM 40.0000 -75.0667 72° East 167 192 5,000 -360 Descending Philadelphia TRACON
06:41AM 40.0167 -75.0167 66° East 165 190 5,000 -60 Level Philadelphia TRACON
06:42AM 40.0167 -74.9500 90° East 167 192 4,900 -480 Descending Philadelphia TRACON
06:43AM 39.9833 -74.8833 123° Southeast 234 269 4,000 -480 Descending Philadelphia TRACON
06:44AM 39.9500 -74.9167 217° Southwest 194 223 4,000 -600 Level Philadelphia TRACON
06:45AM 39.9167 -74.9833 237° Southwest 157 181 2,800 -840 Descending Philadelphia TRACON
06:46AM 39.9167 -75.0167 270° West 159 183 2,500 -480 Descending Philadelphia TRACON
06:47AM 39.9000 -75.1000 255° West 153 176 2,000 -420 Descending Philadelphia TRACON